createdAt,value
2022-09-13T00:01:28.297Z,9.30
2022-09-13T00:03:55.500Z,8.32
2022-09-13T00:06:22.698Z,8.98
2022-09-13T00:08:50.128Z,9.20
2022-09-13T00:11:20.559Z,8.88
2022-09-13T00:13:49.490Z,9.57
2022-09-13T00:16:19.137Z,9.38
2022-09-13T00:21:15.723Z,8.80
2022-09-13T00:23:45.586Z,9.50
2022-09-13T00:26:15.269Z,9.27
2022-09-13T00:28:43.076Z,10.10
2022-09-13T00:31:10.182Z,10.13
2022-09-13T00:33:37.795Z,10.60
2022-09-13T00:36:10.168Z,11.98
2022-09-13T00:38:41.582Z,11.52
2022-09-13T00:41:12.172Z,11.55
2022-09-13T00:43:55.117Z,11.23
2022-09-13T00:46:35.470Z,11.63
2022-09-13T00:49:17.674Z,11.43
2022-09-13T00:51:53.001Z,12.63
2022-09-13T00:54:23.695Z,12.43
2022-09-13T00:56:54.927Z,11.50
2022-09-13T00:59:33.445Z,12.40
2022-09-13T01:02:02.167Z,12.27
2022-09-13T01:04:32.668Z,12.18
2022-09-13T01:07:04.573Z,11.93
2022-09-13T01:09:33.411Z,11.57
2022-09-13T01:12:08.301Z,11.48
2022-09-13T01:14:37.168Z,11.48
2022-09-13T01:17:04.834Z,11.68
2022-09-13T01:19:32.019Z,12.48
2022-09-13T01:22:25.181Z,12.05
2022-09-13T01:25:34.395Z,12.32
2022-09-13T01:28:28.133Z,12.65
2022-09-13T01:31:13.524Z,12.77
2022-09-13T01:34:21.850Z,11.85
2022-09-13T01:37:03.930Z,12.05
2022-09-13T01:39:59.029Z,11.73
2022-09-13T01:42:41.684Z,12.00
2022-09-13T01:45:32.872Z,11.23
2022-09-13T01:48:07.371Z,11.80
2022-09-13T01:50:37.191Z,12.07
2022-09-13T01:53:16.255Z,12.60
2022-09-13T01:55:59.284Z,13.63
2022-09-13T01:58:32.181Z,13.10
2022-09-13T02:01:08.475Z,13.23
2022-09-13T02:03:43.377Z,13.45
2022-09-13T02:06:24.599Z,13.00
2022-09-13T02:09:02.759Z,13.07
2022-09-13T02:11:30.931Z,13.17
2022-09-13T02:14:20.759Z,13.63
2022-09-13T02:17:02.556Z,12.90
2022-09-13T02:19:38.493Z,12.45
2022-09-13T02:22:08.090Z,12.98
2022-09-13T02:24:48.435Z,14.40
2022-09-13T02:27:20.670Z,13.35
2022-09-13T02:29:51.014Z,12.93
2022-09-13T02:32:38.560Z,12.25
2022-09-13T02:35:19.287Z,13.00
2022-09-13T02:37:55.853Z,12.32
2022-09-13T02:43:35.939Z,13.10
2022-09-13T02:46:32.323Z,13.18
2022-09-13T02:49:14.266Z,12.65
2022-09-13T02:51:52.409Z,13.57
2022-09-13T02:54:44.199Z,13.13
2022-09-13T02:57:20.749Z,13.75
2022-09-13T02:59:49.623Z,12.45
2022-09-13T03:02:20.057Z,12.32
2022-09-13T03:04:46.943Z,12.23
2022-09-13T03:07:15.413Z,12.35
2022-09-13T03:10:07.352Z,13.30
2022-09-13T03:13:02.070Z,14.00
2022-09-13T03:15:56.531Z,15.88
2022-09-13T03:19:15.696Z,14.40
2022-09-13T03:21:55.383Z,15.40
2022-09-13T03:24:52.966Z,14.98
2022-09-13T03:27:29.023Z,16.77
2022-09-13T03:30:08.413Z,17.77
2022-09-13T03:32:48.057Z,16.63
2022-09-13T03:35:33.459Z,17.50
2022-09-13T03:38:06.939Z,17.30
2022-09-13T03:41:02.961Z,17.77
2022-09-13T03:43:41.689Z,16.95
2022-09-13T03:46:23.223Z,16.77
2022-09-13T03:48:51.608Z,18.55
2022-09-13T03:51:18.862Z,18.25
2022-09-13T03:53:56.748Z,17.85
2022-09-13T03:56:24.254Z,17.73
2022-09-13T03:58:51.257Z,18.67
2022-09-13T04:01:21.967Z,17.23
2022-09-13T04:03:53.330Z,17.50
2022-09-13T04:06:22.744Z,18.50
2022-09-13T04:08:49.804Z,17.48
2022-09-13T04:11:17.035Z,16.42
2022-09-13T04:13:43.909Z,17.30
2022-09-13T04:16:10.739Z,16.73
2022-09-13T04:18:37.815Z,17.75
2022-09-13T04:21:04.904Z,15.93
2022-09-13T04:23:31.718Z,17.02
2022-09-13T04:26:05.307Z,17.58
2022-09-13T04:28:32.139Z,16.33
2022-09-13T04:30:59.084Z,16.52
2022-09-13T04:33:25.997Z,15.80
2022-09-13T04:35:59.767Z,16.63
2022-09-13T04:38:27.307Z,15.93
2022-09-13T04:40:55.787Z,15.07
2022-09-13T04:43:23.747Z,13.55
2022-09-13T04:45:51.109Z,12.43
2022-09-13T04:48:18.003Z,12.95
2022-09-13T04:50:45.016Z,12.50
2022-09-13T04:53:12.272Z,12.68
2022-09-13T04:55:39.200Z,12.57
2022-09-13T04:58:06.179Z,13.07
2022-09-13T05:00:34.076Z,12.32
2022-09-13T05:03:01.275Z,13.18
2022-09-13T05:05:28.976Z,14.32
2022-09-13T05:07:56.062Z,14.43
2022-09-13T05:10:22.855Z,10.30
2022-09-13T05:12:49.626Z,7.28
2022-09-13T05:15:16.817Z,6.28
2022-09-13T05:17:43.654Z,6.82
2022-09-13T05:20:10.956Z,7.93
2022-09-13T05:22:38.175Z,7.70
2022-09-13T05:25:05.460Z,6.95
2022-09-13T05:27:32.204Z,6.57
2022-09-13T05:29:59.193Z,5.53
2022-09-13T05:32:26.126Z,5.68
2022-09-13T05:34:52.954Z,5.55
2022-09-13T05:37:20.029Z,5.38
2022-09-13T05:40:10.123Z,5.63
2022-09-13T05:42:34.189Z,4.72
2022-09-13T05:45:00.945Z,5.45
2022-09-13T05:47:27.723Z,4.97
2022-09-13T05:50:09.793Z,4.85
2022-09-13T05:52:37.459Z,4.50
2022-09-13T05:55:04.712Z,4.70
2022-09-13T05:57:31.467Z,4.50
2022-09-13T05:59:58.248Z,3.97
2022-09-13T06:02:25.253Z,4.38
2022-09-13T06:04:52.061Z,3.13
2022-09-13T06:07:18.945Z,3.92
2022-09-13T06:09:45.904Z,3.60
2022-09-13T06:12:12.675Z,3.40
2022-09-13T06:14:39.475Z,2.72
2022-09-13T06:17:06.438Z,2.97
2022-09-13T06:19:33.198Z,3.42
2022-09-13T06:22:00.020Z,3.08
2022-09-13T06:24:27.079Z,3.28
2022-09-13T06:26:54.393Z,3.40
2022-09-13T06:29:21.251Z,3.72
2022-09-13T06:31:48.303Z,3.63
2022-09-13T06:34:16.280Z,29.30
2022-09-13T06:36:43.490Z,5.43
2022-09-13T06:39:10.785Z,3.25
2022-09-13T06:41:37.952Z,3.20
2022-09-13T06:44:05.460Z,2.88
2022-09-13T06:46:34.665Z,3.20
2022-09-13T06:51:34.032Z,3.30
2022-09-13T06:54:01.455Z,3.17
2022-09-13T06:56:33.171Z,3.83
2022-09-13T06:59:02.906Z,3.55
2022-09-13T07:01:32.489Z,3.20
2022-09-13T07:04:10.918Z,3.20
2022-09-13T07:06:40.466Z,3.33
2022-09-13T07:09:10.798Z,2.92
2022-09-13T07:11:40.604Z,2.80
2022-09-13T07:14:09.137Z,2.83
2022-09-13T07:16:38.560Z,3.88
2022-09-13T07:19:11.186Z,3.65
2022-09-13T07:21:38.388Z,2.75
2022-09-13T07:24:05.601Z,2.50
2022-09-13T07:26:32.347Z,2.63
2022-09-13T07:29:01.842Z,2.30
2022-09-13T07:31:40.168Z,2.60
2022-09-13T07:34:11.969Z,2.30
2022-09-13T07:36:38.910Z,2.55
2022-09-13T07:39:06.465Z,2.30
2022-09-13T07:41:35.278Z,2.78
2022-09-13T07:44:03.242Z,2.70
2022-09-13T07:46:32.509Z,2.58
2022-09-13T07:49:01.326Z,2.60
2022-09-13T07:51:33.312Z,2.65
2022-09-13T07:54:02.599Z,2.35
2022-09-13T07:56:32.475Z,2.38
2022-09-13T07:59:01.538Z,2.88
2022-09-13T08:01:38.461Z,2.53
2022-09-13T08:04:10.646Z,3.25
2022-09-13T08:06:43.402Z,2.78
2022-09-13T08:09:10.897Z,2.63
2022-09-13T08:11:39.292Z,2.47
2022-09-13T08:14:08.851Z,3.53
2022-09-13T08:16:35.942Z,2.38
2022-09-13T08:19:04.680Z,3.03
2022-09-13T08:21:37.593Z,2.17
2022-09-13T08:24:06.386Z,2.45
2022-09-13T08:26:34.664Z,2.20
2022-09-13T08:29:04.577Z,2.28
2022-09-13T08:31:32.114Z,2.20
2022-09-13T08:33:59.569Z,2.13
2022-09-13T08:36:28.792Z,1.80
2022-09-13T08:38:59.311Z,1.83
2022-09-13T08:41:48.133Z,2.30
2022-09-13T08:44:31.169Z,2.65
2022-09-13T08:47:03.522Z,2.13
2022-09-13T08:49:34.649Z,1.77
2022-09-13T08:52:29.894Z,2.03
2022-09-13T08:54:58.659Z,2.40
2022-09-13T08:57:35.759Z,1.90
2022-09-13T09:00:23.199Z,1.90
2022-09-13T09:03:08.770Z,1.80
2022-09-13T09:06:02.097Z,1.90
2022-09-13T09:08:52.136Z,1.80
2022-09-13T09:11:38.008Z,1.60
2022-09-13T09:14:04.754Z,1.70
2022-09-13T09:17:13.571Z,2.28
2022-09-13T09:19:55.518Z,1.85
2022-09-13T09:22:25.572Z,1.50
2022-09-13T09:24:55.615Z,2.20
2022-09-13T09:27:23.307Z,1.70
2022-09-13T09:29:53.555Z,1.58
2022-09-13T09:32:42.163Z,1.80
2022-09-13T09:35:36.933Z,2.70
2022-09-13T09:38:22.485Z,1.70
2022-09-13T09:40:49.993Z,2.17
2022-09-13T09:43:29.998Z,1.80
2022-09-13T09:45:58.349Z,2.67
2022-09-13T09:48:30.538Z,1.90
2022-09-13T09:50:58.737Z,1.45
2022-09-13T09:53:37.008Z,1.85
2022-09-13T09:56:23.319Z,2.22
2022-09-13T09:58:52.306Z,1.50
2022-09-13T10:04:16.560Z,1.80
2022-09-13T10:06:46.239Z,1.80
2022-09-13T10:09:13.161Z,1.60
2022-09-13T10:11:53.081Z,2.08
2022-09-13T10:14:27.994Z,1.90
2022-09-13T10:17:23.577Z,2.13
2022-09-13T10:20:04.004Z,1.98
2022-09-13T10:22:33.901Z,1.70
2022-09-13T10:25:23.782Z,2.03
2022-09-13T10:27:54.287Z,2.05
2022-09-13T10:30:37.526Z,1.80
2022-09-13T10:33:06.131Z,1.70
2022-09-13T10:38:00.855Z,2.03
2022-09-13T10:40:34.173Z,1.85
2022-09-13T10:43:04.940Z,3.25
2022-09-13T10:45:32.341Z,1.75
2022-09-13T10:48:10.617Z,2.05
2022-09-13T10:53:24.990Z,1.58
2022-09-13T10:55:55.440Z,1.80
2022-09-13T10:58:22.532Z,1.60
2022-09-13T11:00:55.282Z,1.58
2022-09-13T11:03:40.309Z,1.40
2022-09-13T11:06:15.877Z,1.90
2022-09-13T11:09:03.195Z,2.70
2022-09-13T11:11:47.323Z,1.90
2022-09-13T11:14:17.827Z,1.50
2022-09-13T11:17:07.466Z,2.03
2022-09-13T11:19:56.982Z,1.50
2022-09-13T11:22:38.939Z,2.42
2022-09-13T11:25:24.579Z,1.50
2022-09-13T11:28:08.894Z,1.60
2022-09-13T11:31:01.868Z,1.58
2022-09-13T11:33:43.578Z,1.75
2022-09-13T11:36:16.978Z,1.55
2022-09-13T11:39:08.423Z,1.60
2022-09-13T11:41:59.532Z,1.70
2022-09-13T11:44:36.196Z,1.70
2022-09-13T11:47:03.125Z,1.90
2022-09-13T11:49:58.963Z,1.50
2022-09-13T11:52:52.348Z,1.75
2022-09-13T11:55:33.709Z,1.85
2022-09-13T11:58:14.909Z,2.00
2022-09-13T12:00:46.908Z,1.70
2022-09-13T12:03:32.249Z,1.63
2022-09-13T12:06:13.628Z,1.65
2022-09-13T12:08:54.637Z,2.22
2022-09-13T12:11:48.476Z,2.22
2022-09-13T12:14:21.663Z,2.00
2022-09-13T12:16:52.204Z,1.88
2022-09-13T12:19:27.433Z,1.90
2022-09-13T12:21:58.740Z,1.92
2022-09-13T12:24:35.976Z,2.13
2022-09-13T12:27:22.090Z,1.90
2022-09-13T12:29:53.747Z,2.10
2022-09-13T12:32:21.509Z,2.30
2022-09-13T12:35:06.554Z,2.60
2022-09-13T12:37:51.710Z,2.30
2022-09-13T12:40:31.271Z,2.28
2022-09-13T12:43:01.066Z,2.35
2022-09-13T12:45:49.725Z,2.30
2022-09-13T12:48:35.319Z,2.53
2022-09-13T12:51:32.724Z,2.60
2022-09-13T12:57:23.589Z,2.42
2022-09-13T13:00:18.359Z,2.63
2022-09-13T13:03:10.318Z,2.63
2022-09-13T13:05:43.459Z,2.50
2022-09-13T13:08:19.539Z,2.50
2022-09-13T13:11:07.037Z,2.90
2022-09-13T13:13:44.764Z,2.97
2022-09-13T13:16:34.843Z,2.90
2022-09-13T13:19:06.380Z,7.47
2022-09-13T13:21:40.770Z,5.30
2022-09-13T13:24:16.387Z,2.67
2022-09-13T13:26:45.761Z,2.55
2022-09-13T13:29:19.923Z,2.50
2022-09-13T13:32:07.650Z,2.40
2022-09-13T13:34:50.754Z,2.50
2022-09-13T13:37:20.502Z,2.50
2022-09-13T13:39:49.018Z,2.80
2022-09-13T13:42:27.867Z,2.90
2022-09-13T13:44:54.775Z,2.55
2022-09-13T13:47:32.958Z,2.70
2022-09-13T13:50:02.810Z,2.75
2022-09-13T13:52:36.734Z,2.53
2022-09-13T13:55:49.336Z,3.55
2022-09-13T13:58:19.326Z,2.70
2022-09-13T14:00:50.234Z,2.78
2022-09-13T14:03:28.326Z,2.28
2022-09-13T14:06:06.128Z,3.05
2022-09-13T14:08:54.106Z,2.47
2022-09-13T14:11:42.421Z,2.50
2022-09-13T14:14:38.954Z,2.72
2022-09-13T14:17:33.545Z,2.67
2022-09-13T14:20:26.834Z,2.83
2022-09-13T14:23:13.270Z,2.67
2022-09-13T14:25:40.229Z,2.95
2022-09-13T14:28:07.847Z,2.78
2022-09-13T14:30:39.354Z,2.92
2022-09-13T14:33:06.362Z,2.85
2022-09-13T14:35:41.634Z,2.90
2022-09-13T14:42:13.807Z,2.80
2022-09-13T14:44:46.672Z,3.20
2022-09-13T14:47:25.101Z,3.30
2022-09-13T14:50:13.101Z,3.38
2022-09-13T14:52:49.659Z,2.92
2022-09-13T14:55:21.473Z,3.08
2022-09-13T14:57:52.673Z,2.97
2022-09-13T15:00:22.669Z,2.92
2022-09-13T15:02:53.281Z,9.57
2022-09-13T15:05:23.802Z,7.20
2022-09-13T15:07:51.094Z,12.68
2022-09-13T15:10:17.832Z,15.77
2022-09-13T15:12:55.784Z,15.05
2022-09-13T15:15:26.204Z,9.35
2022-09-13T15:17:54.741Z,7.18
2022-09-13T15:20:22.703Z,4.63
2022-09-13T15:22:51.535Z,4.53
2022-09-13T15:25:26.063Z,4.63
2022-09-13T15:27:55.080Z,4.20
2022-09-13T15:30:24.854Z,3.20
2022-09-13T15:33:07.200Z,3.58
2022-09-13T15:35:39.874Z,3.50
2022-09-13T15:38:25.387Z,4.10
2022-09-13T15:41:10.691Z,5.00
2022-09-13T15:43:38.046Z,5.78
2022-09-13T15:46:06.425Z,5.65
2022-09-13T15:48:35.510Z,6.65
2022-09-13T15:51:13.666Z,10.00
2022-09-13T15:53:42.688Z,12.57
2022-09-13T15:56:15.598Z,58.72
2022-09-13T15:58:42.814Z,60.00
2022-09-13T16:01:12.716Z,46.17
2022-09-13T16:03:40.094Z,51.28
2022-09-13T16:06:09.378Z,97.68
2022-09-13T16:08:37.711Z,40.20
2022-09-13T16:11:05.866Z,31.20
2022-09-13T16:13:33.098Z,24.65
2022-09-13T16:16:00.302Z,45.10
2022-09-13T16:18:27.380Z,55.42
2022-09-13T16:20:54.515Z,60.72
2022-09-13T16:23:21.298Z,24.13
2022-09-13T16:25:57.427Z,57.70
2022-09-13T16:28:25.017Z,30.30
2022-09-13T16:30:52.575Z,27.88
2022-09-13T16:33:19.903Z,25.42
2022-09-13T16:35:47.652Z,34.50
2022-09-13T16:38:14.715Z,42.22
2022-09-13T16:40:43.300Z,88.28
2022-09-13T16:43:10.763Z,67.10
2022-09-13T16:45:42.112Z,66.60
2022-09-13T16:48:09.131Z,70.55
2022-09-13T16:50:40.238Z,118.78
2022-09-13T16:53:08.057Z,114.65
2022-09-13T16:55:35.604Z,77.63
2022-09-13T16:58:02.660Z,83.07
2022-09-13T17:00:30.230Z,63.60
2022-09-13T17:02:57.777Z,62.08
2022-09-13T17:05:25.866Z,40.33
2022-09-13T17:07:53.269Z,43.10
2022-09-13T17:10:21.796Z,49.45
2022-09-13T17:12:49.286Z,59.20
2022-09-13T17:15:16.323Z,63.65
2022-09-13T17:17:43.143Z,57.50
2022-09-13T17:20:12.259Z,42.88
2022-09-13T17:22:39.649Z,46.42
2022-09-13T17:25:10.279Z,51.47
2022-09-13T17:27:37.435Z,69.50
2022-09-13T17:30:05.305Z,73.43
2022-09-13T17:32:32.398Z,56.55
2022-09-13T17:34:59.489Z,53.75
2022-09-13T17:37:26.376Z,50.35
2022-09-13T17:39:53.328Z,42.38
2022-09-13T17:42:23.316Z,39.65
2022-09-13T17:44:50.965Z,39.08
2022-09-13T17:47:17.814Z,40.13
2022-09-13T17:49:47.211Z,59.28
2022-09-13T17:52:14.029Z,58.63
2022-09-13T17:54:40.887Z,44.92
2022-09-13T17:57:08.101Z,35.33
2022-09-13T17:59:35.149Z,33.88
2022-09-13T18:02:02.187Z,26.92
2022-09-13T18:04:29.403Z,26.77
2022-09-13T18:06:56.288Z,29.85
2022-09-13T18:09:23.440Z,28.15
2022-09-13T18:11:51.325Z,29.90
2022-09-13T18:14:19.232Z,35.72
2022-09-13T18:16:47.153Z,31.60
2022-09-13T18:19:14.199Z,36.17
2022-09-13T18:21:41.237Z,29.42
2022-09-13T18:24:08.416Z,27.27
2022-09-13T18:26:36.025Z,22.00
2022-09-13T18:29:07.518Z,20.85
2022-09-13T18:31:36.030Z,18.15
2022-09-13T18:34:05.657Z,16.02
2022-09-13T18:36:34.994Z,16.55
2022-09-13T18:39:04.845Z,17.17
2022-09-13T18:41:37.828Z,16.20
2022-09-13T18:44:07.228Z,16.15
2022-09-13T18:46:35.160Z,18.55
2022-09-13T18:49:03.305Z,19.02
2022-09-13T18:51:33.314Z,26.73
2022-09-13T18:54:01.509Z,24.25
2022-09-13T18:56:29.206Z,23.33
2022-09-13T18:58:56.862Z,17.77
2022-09-13T19:01:26.787Z,16.67
2022-09-13T19:03:57.369Z,14.07
2022-09-13T19:06:36.266Z,12.85
2022-09-13T19:09:04.538Z,10.50
2022-09-13T19:11:49.981Z,9.30
2022-09-13T19:14:19.417Z,9.80
2022-09-13T19:16:46.874Z,8.48
2022-09-13T19:19:14.037Z,8.45
2022-09-13T19:21:41.286Z,9.30
2022-09-13T19:24:16.282Z,7.25
2022-09-13T19:26:44.857Z,6.72
2022-09-13T19:29:15.361Z,7.20
2022-09-13T19:31:44.277Z,7.07
2022-09-13T19:34:12.275Z,7.15
2022-09-13T19:36:40.240Z,6.28
2022-09-13T19:39:07.711Z,6.43
2022-09-13T19:41:37.182Z,6.30
2022-09-13T19:44:04.543Z,6.25
2022-09-13T19:46:34.970Z,5.78
2022-09-13T19:49:02.690Z,5.60
2022-09-13T19:51:32.541Z,5.18
2022-09-13T19:54:00.690Z,5.38
2022-09-13T19:56:30.231Z,5.88
2022-09-13T19:58:58.394Z,6.35
2022-09-13T20:01:28.359Z,6.18
2022-09-13T20:04:00.922Z,8.35
2022-09-13T20:06:30.330Z,6.50
2022-09-13T20:09:02.887Z,5.88
2022-09-13T20:11:31.539Z,7.15
2022-09-13T20:13:59.565Z,5.77
2022-09-13T20:16:30.218Z,6.10
2022-09-13T20:18:58.262Z,5.35
2022-09-13T20:21:27.212Z,5.30
2022-09-13T20:23:56.198Z,4.78
2022-09-13T20:26:25.720Z,4.80
2022-09-13T20:31:25.247Z,4.68
2022-09-13T20:33:56.835Z,4.95
2022-09-13T20:36:24.707Z,3.95
2022-09-13T20:38:53.442Z,4.75
2022-09-13T20:41:21.571Z,4.72
2022-09-13T20:43:49.004Z,4.63
2022-09-13T20:46:17.289Z,4.25
2022-09-13T20:48:44.894Z,4.43
2022-09-13T20:51:25.353Z,4.63
2022-09-13T20:54:00.640Z,5.00
2022-09-13T20:56:29.008Z,4.15
2022-09-13T20:59:00.199Z,4.47
2022-09-13T21:01:28.934Z,4.13
2022-09-13T21:03:56.208Z,3.97
2022-09-13T21:06:25.325Z,4.50
2022-09-13T21:08:52.567Z,3.45
2022-09-13T21:11:25.763Z,3.58
2022-09-13T21:13:56.075Z,3.70
2022-09-13T21:16:25.488Z,3.70
2022-09-13T21:18:53.736Z,4.07
2022-09-13T21:21:26.520Z,3.37
2022-09-13T21:23:54.864Z,3.60
2022-09-13T21:26:23.898Z,3.10
2022-09-13T21:28:51.254Z,3.60
2022-09-13T21:31:21.848Z,3.00
2022-09-13T21:33:54.292Z,3.40
2022-09-13T21:36:21.074Z,3.70
2022-09-13T21:38:47.981Z,3.17
2022-09-13T21:41:16.917Z,3.50
2022-09-13T21:43:44.514Z,3.10
2022-09-13T21:46:16.687Z,3.45
2022-09-13T21:48:46.427Z,3.75
2022-09-13T21:51:22.273Z,3.42
2022-09-13T21:53:57.607Z,3.10
2022-09-13T21:56:27.510Z,3.60
2022-09-13T21:58:59.701Z,2.75
2022-09-13T22:01:31.022Z,3.33
2022-09-13T22:03:59.263Z,2.80
2022-09-13T22:06:31.412Z,2.83
2022-09-13T22:09:02.443Z,2.72
2022-09-13T22:11:32.106Z,3.20
2022-09-13T22:13:59.872Z,3.13
2022-09-13T22:16:29.485Z,3.00
2022-09-13T22:21:33.665Z,3.03
2022-09-13T22:24:01.233Z,3.03
2022-09-13T22:26:31.145Z,3.20
2022-09-13T22:28:58.693Z,2.83
2022-09-13T22:31:28.453Z,3.00
2022-09-13T22:33:56.546Z,3.40
2022-09-13T22:36:23.879Z,3.25
2022-09-13T22:38:54.935Z,2.63
2022-09-13T22:41:28.436Z,2.58
2022-09-13T22:43:57.533Z,2.75
2022-09-13T22:46:33.692Z,2.72
2022-09-13T22:49:01.182Z,2.80
2022-09-13T22:51:28.810Z,2.60
2022-09-13T22:53:56.311Z,2.67
2022-09-13T22:56:29.110Z,2.60
2022-09-13T22:58:56.822Z,2.50
2022-09-13T23:01:24.768Z,2.55
2022-09-13T23:03:52.717Z,2.60
2022-09-13T23:06:21.853Z,2.60
2022-09-13T23:08:50.823Z,2.85
2022-09-13T23:11:21.380Z,3.03
2022-09-13T23:13:49.983Z,3.38
2022-09-13T23:16:20.168Z,2.78
2022-09-13T23:18:48.156Z,2.60
2022-09-13T23:21:18.654Z,3.30
2022-09-13T23:23:45.620Z,2.78
2022-09-13T23:26:17.469Z,2.88
2022-09-13T23:28:46.205Z,2.50
2022-09-13T23:31:14.543Z,2.40
2022-09-13T23:33:44.291Z,2.40
2022-09-13T23:36:12.783Z,2.60
2022-09-13T23:38:41.323Z,2.55
2022-09-13T23:41:08.148Z,2.70
2022-09-13T23:43:34.897Z,2.65
2022-09-13T23:46:01.920Z,2.33
2022-09-13T23:48:28.750Z,2.20
2022-09-13T23:51:03.743Z,2.45
2022-09-13T23:53:31.793Z,2.60
2022-09-13T23:55:58.606Z,2.30
2022-09-13T23:58:26.102Z,2.60
